sensor_id;sensor_type;location;lat;lon;timestamp;temperature;humidity
29547;DHT22;40782;47.264;11.330;2023-04-06T00:00:16;3.20;99.90
29547;DHT22;40782;47.264;11.330;2023-04-06T00:02:43;3.10;99.90
29547;DHT22;40782;47.264;11.330;2023-04-06T00:05:10;3.10;99.90
29547;DHT22;40782;47.264;11.330;2023-04-06T00:07:38;3.20;99.90
29547;DHT22;40782;47.264;11.330;2023-04-06T00:10:07;3.20;99.90
29547;DHT22;40782;47.264;11.330;2023-04-06T00:12:34;3.30;99.90
29547;DHT22;40782;47.264;11.330;2023-04-06T00:15:02;3.30;99.90
29547;DHT22;40782;47.264;11.330;2023-04-06T00:17:31;3.30;99.90
29547;DHT22;40782;47.264;11.330;2023-04-06T00:19:58;3.20;99.90
29547;DHT22;40782;47.264;11.330;2023-04-06T00:22:25;3.20;99.90
29547;DHT22;40782;47.264;11.330;2023-04-06T00:24:52;3.20;99.90
29547;DHT22;40782;47.264;11.330;2023-04-06T00:27:20;3.00;99.90
29547;DHT22;40782;47.264;11.330;2023-04-06T00:29:48;3.00;99.90
29547;DHT22;40782;47.264;11.330;2023-04-06T00:32:15;2.90;99.90
29547;DHT22;40782;47.264;11.330;2023-04-06T00:34:42;2.90;99.90
29547;DHT22;40782;47.264;11.330;2023-04-06T00:37:10;2.90;99.90
29547;DHT22;40782;47.264;11.330;2023-04-06T00:39:37;2.90;99.90
29547;DHT22;40782;47.264;11.330;2023-04-06T00:42:07;2.90;99.90
29547;DHT22;40782;47.264;11.330;2023-04-06T00:44:36;2.90;99.90
29547;DHT22;40782;47.264;11.330;2023-04-06T00:47:03;2.90;99.90
29547;DHT22;40782;47.264;11.330;2023-04-06T00:49:31;2.90;99.90
29547;DHT22;40782;47.264;11.330;2023-04-06T00:51:58;2.70;99.90
29547;DHT22;40782;47.264;11.330;2023-04-06T00:54:26;2.50;99.90
29547;DHT22;40782;47.264;11.330;2023-04-06T00:56:53;2.50;99.90
29547;DHT22;40782;47.264;11.330;2023-04-06T00:59:20;2.50;99.90
29547;DHT22;40782;47.264;11.330;2023-04-06T01:01:49;2.60;99.90
29547;DHT22;40782;47.264;11.330;2023-04-06T01:04:16;2.60;99.90
29547;DHT22;40782;47.264;11.330;2023-04-06T01:06:43;2.60;99.90
29547;DHT22;40782;47.264;11.330;2023-04-06T01:09:10;2.60;99.90
29547;DHT22;40782;47.264;11.330;2023-04-06T01:11:38;2.50;99.90
29547;DHT22;40782;47.264;11.330;2023-04-06T01:14:05;2.50;99.90
29547;DHT22;40782;47.264;11.330;2023-04-06T01:16:32;2.50;99.90
29547;DHT22;40782;47.264;11.330;2023-04-06T01:19:01;2.50;99.90
29547;DHT22;40782;47.264;11.330;2023-04-06T01:21:33;2.40;99.90
29547;DHT22;40782;47.264;11.330;2023-04-06T01:24:02;2.40;99.90
29547;DHT22;40782;47.264;11.330;2023-04-06T01:26:29;2.40;99.90
29547;DHT22;40782;47.264;11.330;2023-04-06T01:28:56;2.40;99.90
29547;DHT22;40782;47.264;11.330;2023-04-06T01:31:24;2.50;99.90
29547;DHT22;40782;47.264;11.330;2023-04-06T01:33:51;2.40;99.90
29547;DHT22;40782;47.264;11.330;2023-04-06T01:36:18;2.40;99.90
29547;DHT22;40782;47.264;11.330;2023-04-06T01:38:46;2.30;99.90
29547;DHT22;40782;47.264;11.330;2023-04-06T01:41:14;2.30;99.90
29547;DHT22;40782;47.264;11.330;2023-04-06T01:43:41;2.10;99.90
29547;DHT22;40782;47.264;11.330;2023-04-06T01:46:08;2.00;99.90
29547;DHT22;40782;47.264;11.330;2023-04-06T01:48:35;2.00;99.90
29547;DHT22;40782;47.264;11.330;2023-04-06T01:51:03;2.00;99.90
29547;DHT22;40782;47.264;11.330;2023-04-06T01:53:30;2.00;99.90
29547;DHT22;40782;47.264;11.330;2023-04-06T01:55:57;2.00;99.90
29547;DHT22;40782;47.264;11.330;2023-04-06T01:58:26;2.00;99.90
29547;DHT22;40782;47.264;11.330;2023-04-06T02:00:53;2.10;99.90
29547;DHT22;40782;47.264;11.330;2023-04-06T02:03:20;2.20;99.90
29547;DHT22;40782;47.264;11.330;2023-04-06T02:05:47;2.10;99.90
29547;DHT22;40782;47.264;11.330;2023-04-06T02:08:14;2.10;99.90
29547;DHT22;40782;47.264;11.330;2023-04-06T02:10:41;2.10;99.90
29547;DHT22;40782;47.264;11.330;2023-04-06T02:13:08;2.10;99.90
29547;DHT22;40782;47.264;11.330;2023-04-06T02:15:36;2.20;99.90
29547;DHT22;40782;47.264;11.330;2023-04-06T02:18:04;2.20;99.90
29547;DHT22;40782;47.264;11.330;2023-04-06T02:20:31;2.10;99.90
29547;DHT22;40782;47.264;11.330;2023-04-06T02:22:58;2.10;99.90
29547;DHT22;40782;47.264;11.330;2023-04-06T02:25:26;2.10;99.90
29547;DHT22;40782;47.264;11.330;2023-04-06T02:27:53;2.20;99.90
29547;DHT22;40782;47.264;11.330;2023-04-06T02:30:20;2.30;99.90
29547;DHT22;40782;47.264;11.330;2023-04-06T02:32:49;2.40;99.90
29547;DHT22;40782;47.264;11.330;2023-04-06T02:35:16;2.40;99.90
29547;DHT22;40782;47.264;11.330;2023-04-06T02:37:43;2.40;99.90
29547;DHT22;40782;47.264;11.330;2023-04-06T02:40:10;2.40;99.90
29547;DHT22;40782;47.264;11.330;2023-04-06T02:42:37;2.30;99.90
29547;DHT22;40782;47.264;11.330;2023-04-06T02:45:05;2.10;99.90
29547;DHT22;40782;47.264;11.330;2023-04-06T02:47:32;2.00;99.90
29547;DHT22;40782;47.264;11.330;2023-04-06T02:50:01;2.10;99.90
29547;DHT22;40782;47.264;11.330;2023-04-06T02:52:28;2.10;99.90
29547;DHT22;40782;47.264;11.330;2023-04-06T02:54:55;2.10;99.90
29547;DHT22;40782;47.264;11.330;2023-04-06T02:57:22;2.20;99.90
29547;DHT22;40782;47.264;11.330;2023-04-06T02:59:49;2.30;99.90
29547;DHT22;40782;47.264;11.330;2023-04-06T03:02:16;2.40;99.90
29547;DHT22;40782;47.264;11.330;2023-04-06T03:04:43;2.40;99.90
29547;DHT22;40782;47.264;11.330;2023-04-06T03:07:12;2.30;99.90
29547;DHT22;40782;47.264;11.330;2023-04-06T03:09:39;2.20;99.90
29547;DHT22;40782;47.264;11.330;2023-04-06T03:12:06;2.10;99.90
29547;DHT22;40782;47.264;11.330;2023-04-06T03:14:33;2.20;99.90
29547;DHT22;40782;47.264;11.330;2023-04-06T03:17:00;2.20;99.90
29547;DHT22;40782;47.264;11.330;2023-04-06T03:19:27;2.10;99.90
29547;DHT22;40782;47.264;11.330;2023-04-06T03:21:55;2.20;99.90
29547;DHT22;40782;47.264;11.330;2023-04-06T03:24:23;2.20;99.90
29547;DHT22;40782;47.264;11.330;2023-04-06T03:26:50;2.40;99.90
29547;DHT22;40782;47.264;11.330;2023-04-06T03:29:17;2.40;99.90
29547;DHT22;40782;47.264;11.330;2023-04-06T03:31:45;2.40;99.90
29547;DHT22;40782;47.264;11.330;2023-04-06T03:34:12;2.50;99.90
29547;DHT22;40782;47.264;11.330;2023-04-06T03:36:39;2.50;99.90
29547;DHT22;40782;47.264;11.330;2023-04-06T03:39:06;2.40;99.90
29547;DHT22;40782;47.264;11.330;2023-04-06T03:41:34;2.40;99.90
29547;DHT22;40782;47.264;11.330;2023-04-06T03:44:01;2.40;99.90
29547;DHT22;40782;47.264;11.330;2023-04-06T03:46:28;2.40;99.90
29547;DHT22;40782;47.264;11.330;2023-04-06T03:48:55;2.40;99.90
29547;DHT22;40782;47.264;11.330;2023-04-06T03:51:22;2.40;99.90
29547;DHT22;40782;47.264;11.330;2023-04-06T03:53:50;2.40;99.90
29547;DHT22;40782;47.264;11.330;2023-04-06T03:56:18;2.40;99.90
29547;DHT22;40782;47.264;11.330;2023-04-06T03:58:47;2.40;99.90
29547;DHT22;40782;47.264;11.330;2023-04-06T04:01:16;2.40;99.90
29547;DHT22;40782;47.264;11.330;2023-04-06T04:03:43;2.20;99.90
29547;DHT22;40782;47.264;11.330;2023-04-06T04:06:10;2.30;99.90
29547;DHT22;40782;47.264;11.330;2023-04-06T04:08:37;2.30;99.90
29547;DHT22;40782;47.264;11.330;2023-04-06T04:11:05;2.20;99.90
29547;DHT22;40782;47.264;11.330;2023-04-06T04:13:32;2.10;99.90
29547;DHT22;40782;47.264;11.330;2023-04-06T04:16:00;2.10;99.90
29547;DHT22;40782;47.264;11.330;2023-04-06T04:18:27;2.10;99.90
29547;DHT22;40782;47.264;11.330;2023-04-06T04:20:54;2.20;99.90
29547;DHT22;40782;47.264;11.330;2023-04-06T04:23:21;2.20;99.90
29547;DHT22;40782;47.264;11.330;2023-04-06T04:25:48;2.20;99.90
29547;DHT22;40782;47.264;11.330;2023-04-06T04:28:16;2.20;99.90
29547;DHT22;40782;47.264;11.330;2023-04-06T04:30:43;2.20;99.90
29547;DHT22;40782;47.264;11.330;2023-04-06T04:33:12;2.30;99.90
29547;DHT22;40782;47.264;11.330;2023-04-06T04:35:39;2.30;99.90
29547;DHT22;40782;47.264;11.330;2023-04-06T04:38:06;2.30;99.90
29547;DHT22;40782;47.264;11.330;2023-04-06T04:40:33;2.30;99.90
29547;DHT22;40782;47.264;11.330;2023-04-06T04:43:00;2.30;99.90
29547;DHT22;40782;47.264;11.330;2023-04-06T04:45:27;2.40;99.90
29547;DHT22;40782;47.264;11.330;2023-04-06T04:47:54;2.40;99.90
29547;DHT22;40782;47.264;11.330;2023-04-06T04:50:23;2.30;99.90
29547;DHT22;40782;47.264;11.330;2023-04-06T04:52:50;2.30;99.90
29547;DHT22;40782;47.264;11.330;2023-04-06T04:55:17;2.20;99.90
29547;DHT22;40782;47.264;11.330;2023-04-06T04:57:44;2.30;99.90
29547;DHT22;40782;47.264;11.330;2023-04-06T05:00:12;2.30;99.90
29547;DHT22;40782;47.264;11.330;2023-04-06T05:02:39;2.30;99.90
29547;DHT22;40782;47.264;11.330;2023-04-06T05:05:07;2.30;99.90
29547;DHT22;40782;47.264;11.330;2023-04-06T05:07:35;2.40;99.90
29547;DHT22;40782;47.264;11.330;2023-04-06T05:10:03;2.40;99.90
29547;DHT22;40782;47.264;11.330;2023-04-06T05:12:30;2.40;99.90
29547;DHT22;40782;47.264;11.330;2023-04-06T05:14:57;2.40;99.90
29547;DHT22;40782;47.264;11.330;2023-04-06T05:17:24;2.50;99.90
29547;DHT22;40782;47.264;11.330;2023-04-06T05:19:51;2.50;99.90
29547;DHT22;40782;47.264;11.330;2023-04-06T05:22:18;2.40;99.90
29547;DHT22;40782;47.264;11.330;2023-04-06T05:24:47;2.50;99.90
29547;DHT22;40782;47.264;11.330;2023-04-06T05:27:14;2.50;99.90
29547;DHT22;40782;47.264;11.330;2023-04-06T05:29:41;2.60;99.90
29547;DHT22;40782;47.264;11.330;2023-04-06T05:32:08;2.70;99.90
29547;DHT22;40782;47.264;11.330;2023-04-06T05:34:36;2.60;99.90
29547;DHT22;40782;47.264;11.330;2023-04-06T05:37:03;2.60;99.90
29547;DHT22;40782;47.264;11.330;2023-04-06T05:39:30;2.50;99.90
29547;DHT22;40782;47.264;11.330;2023-04-06T05:42:01;2.60;99.90
29547;DHT22;40782;47.264;11.330;2023-04-06T05:44:28;2.70;99.90
29547;DHT22;40782;47.264;11.330;2023-04-06T05:46:55;2.80;99.90
29547;DHT22;40782;47.264;11.330;2023-04-06T05:49:22;2.90;99.90
29547;DHT22;40782;47.264;11.330;2023-04-06T05:51:49;2.90;99.90
29547;DHT22;40782;47.264;11.330;2023-04-06T05:54:16;3.00;99.90
29547;DHT22;40782;47.264;11.330;2023-04-06T05:56:44;3.00;99.90
29547;DHT22;40782;47.264;11.330;2023-04-06T05:59:12;3.00;99.90
29547;DHT22;40782;47.264;11.330;2023-04-06T06:01:39;3.00;99.90
29547;DHT22;40782;47.264;11.330;2023-04-06T06:04:06;2.90;99.90
29547;DHT22;40782;47.264;11.330;2023-04-06T06:06:33;2.90;99.90
29547;DHT22;40782;47.264;11.330;2023-04-06T06:09:01;2.80;99.90
29547;DHT22;40782;47.264;11.330;2023-04-06T06:11:29;2.80;99.90
29547;DHT22;40782;47.264;11.330;2023-04-06T06:13:56;2.70;99.90
29547;DHT22;40782;47.264;11.330;2023-04-06T06:16:24;2.80;99.90
29547;DHT22;40782;47.264;11.330;2023-04-06T06:18:51;2.80;99.90
29547;DHT22;40782;47.264;11.330;2023-04-06T06:21:18;2.90;99.90
29547;DHT22;40782;47.264;11.330;2023-04-06T06:23:45;3.00;99.90
29547;DHT22;40782;47.264;11.330;2023-04-06T06:26:14;3.10;99.90
29547;DHT22;40782;47.264;11.330;2023-04-06T06:28:41;3.30;99.90
29547;DHT22;40782;47.264;11.330;2023-04-06T06:31:13;3.20;99.90
29547;DHT22;40782;47.264;11.330;2023-04-06T06:33:43;3.10;99.90
29547;DHT22;40782;47.264;11.330;2023-04-06T06:36:10;2.90;99.90
29547;DHT22;40782;47.264;11.330;2023-04-06T06:38:38;2.90;99.90
29547;DHT22;40782;47.264;11.330;2023-04-06T06:41:05;2.80;99.90
29547;DHT22;40782;47.264;11.330;2023-04-06T06:43:32;2.80;99.90
29547;DHT22;40782;47.264;11.330;2023-04-06T06:45:59;2.80;99.90
29547;DHT22;40782;47.264;11.330;2023-04-06T06:48:26;2.90;99.90
29547;DHT22;40782;47.264;11.330;2023-04-06T06:50:55;2.90;99.90
29547;DHT22;40782;47.264;11.330;2023-04-06T06:53:22;3.00;99.90
29547;DHT22;40782;47.264;11.330;2023-04-06T06:55:49;2.90;99.90
29547;DHT22;40782;47.264;11.330;2023-04-06T06:58:17;2.80;99.90
29547;DHT22;40782;47.264;11.330;2023-04-06T07:00:44;2.80;99.90
29547;DHT22;40782;47.264;11.330;2023-04-06T07:03:12;2.80;99.90
29547;DHT22;40782;47.264;11.330;2023-04-06T07:05:39;2.90;99.90
29547;DHT22;40782;47.264;11.330;2023-04-06T07:08:16;3.00;99.90
29547;DHT22;40782;47.264;11.330;2023-04-06T07:10:43;3.10;99.90
29547;DHT22;40782;47.264;11.330;2023-04-06T07:13:10;3.10;99.90
29547;DHT22;40782;47.264;11.330;2023-04-06T07:15:37;3.20;99.90
29547;DHT22;40782;47.264;11.330;2023-04-06T07:18:05;3.20;99.90
29547;DHT22;40782;47.264;11.330;2023-04-06T07:20:32;3.30;99.90
29547;DHT22;40782;47.264;11.330;2023-04-06T07:22:59;3.30;99.90
29547;DHT22;40782;47.264;11.330;2023-04-06T07:25:28;3.30;99.90
29547;DHT22;40782;47.264;11.330;2023-04-06T07:27:56;3.40;99.90
29547;DHT22;40782;47.264;11.330;2023-04-06T07:30:23;3.50;99.90
29547;DHT22;40782;47.264;11.330;2023-04-06T07:32:51;3.60;99.90
29547;DHT22;40782;47.264;11.330;2023-04-06T07:35:20;3.70;99.90
29547;DHT22;40782;47.264;11.330;2023-04-06T07:37:48;3.80;99.90
29547;DHT22;40782;47.264;11.330;2023-04-06T07:40:15;3.90;99.90
29547;DHT22;40782;47.264;11.330;2023-04-06T07:42:44;4.30;99.90
29547;DHT22;40782;47.264;11.330;2023-04-06T07:45:11;4.40;99.90
29547;DHT22;40782;47.264;11.330;2023-04-06T07:47:38;4.60;99.90
29547;DHT22;40782;47.264;11.330;2023-04-06T07:50:05;4.80;99.90
29547;DHT22;40782;47.264;11.330;2023-04-06T07:52:32;5.00;99.90
29547;DHT22;40782;47.264;11.330;2023-04-06T07:55:00;5.00;99.90
29547;DHT22;40782;47.264;11.330;2023-04-06T07:57:27;4.90;99.90
29547;DHT22;40782;47.264;11.330;2023-04-06T07:59:56;5.10;99.90
29547;DHT22;40782;47.264;11.330;2023-04-06T08:02:23;5.10;99.90
29547;DHT22;40782;47.264;11.330;2023-04-06T08:04:50;5.00;99.90
29547;DHT22;40782;47.264;11.330;2023-04-06T08:07:17;5.20;99.90
29547;DHT22;40782;47.264;11.330;2023-04-06T08:09:44;5.30;99.90
29547;DHT22;40782;47.264;11.330;2023-04-06T08:12:11;5.50;99.90
29547;DHT22;40782;47.264;11.330;2023-04-06T08:14:39;5.70;99.90
29547;DHT22;40782;47.264;11.330;2023-04-06T08:17:07;5.80;99.90
29547;DHT22;40782;47.264;11.330;2023-04-06T08:19:35;5.90;99.90
29547;DHT22;40782;47.264;11.330;2023-04-06T08:22:02;5.70;99.90
29547;DHT22;40782;47.264;11.330;2023-04-06T08:24:30;5.80;99.90
29547;DHT22;40782;47.264;11.330;2023-04-06T08:26:58;5.80;99.90
29547;DHT22;40782;47.264;11.330;2023-04-06T08:29:25;5.90;99.90
29547;DHT22;40782;47.264;11.330;2023-04-06T08:31:52;6.00;99.90
29547;DHT22;40782;47.264;11.330;2023-04-06T08:34:20;6.00;99.90
29547;DHT22;40782;47.264;11.330;2023-04-06T08:36:48;6.20;99.90
29547;DHT22;40782;47.264;11.330;2023-04-06T08:39:15;6.50;99.90
29547;DHT22;40782;47.264;11.330;2023-04-06T08:41:42;6.70;99.90
29547;DHT22;40782;47.264;11.330;2023-04-06T08:44:09;6.80;99.90
29547;DHT22;40782;47.264;11.330;2023-04-06T08:46:37;7.00;99.90
29547;DHT22;40782;47.264;11.330;2023-04-06T08:49:04;6.90;99.90
29547;DHT22;40782;47.264;11.330;2023-04-06T08:51:34;6.90;99.90
29547;DHT22;40782;47.264;11.330;2023-04-06T08:54:01;7.00;99.90
29547;DHT22;40782;47.264;11.330;2023-04-06T08:56:28;7.40;99.90
29547;DHT22;40782;47.264;11.330;2023-04-06T08:58:56;7.50;99.90
29547;DHT22;40782;47.264;11.330;2023-04-06T09:01:25;7.70;99.90
29547;DHT22;40782;47.264;11.330;2023-04-06T09:03:53;7.50;99.90
29547;DHT22;40782;47.264;11.330;2023-04-06T09:06:22;7.70;99.90
29547;DHT22;40782;47.264;11.330;2023-04-06T09:08:51;7.80;99.90
29547;DHT22;40782;47.264;11.330;2023-04-06T09:11:18;7.90;99.90
29547;DHT22;40782;47.264;11.330;2023-04-06T09:13:46;8.10;99.90
29547;DHT22;40782;47.264;11.330;2023-04-06T09:16:13;8.20;99.90
29547;DHT22;40782;47.264;11.330;2023-04-06T09:18:40;8.30;99.90
29547;DHT22;40782;47.264;11.330;2023-04-06T09:21:08;8.40;99.90
29547;DHT22;40782;47.264;11.330;2023-04-06T09:23:35;8.40;99.90
29547;DHT22;40782;47.264;11.330;2023-04-06T09:26:07;8.80;99.90
29547;DHT22;40782;47.264;11.330;2023-04-06T09:28:42;8.90;99.90
29547;DHT22;40782;47.264;11.330;2023-04-06T09:31:10;9.10;99.90
29547;DHT22;40782;47.264;11.330;2023-04-06T09:33:37;9.10;99.90
29547;DHT22;40782;47.264;11.330;2023-04-06T09:36:05;9.20;99.90
29547;DHT22;40782;47.264;11.330;2023-04-06T09:38:32;9.40;99.90
29547;DHT22;40782;47.264;11.330;2023-04-06T09:40:59;9.60;99.90
29547;DHT22;40782;47.264;11.330;2023-04-06T09:43:28;9.70;99.90
29547;DHT22;40782;47.264;11.330;2023-04-06T09:45:55;9.70;99.90
29547;DHT22;40782;47.264;11.330;2023-04-06T09:48:22;9.70;99.90
29547;DHT22;40782;47.264;11.330;2023-04-06T09:50:52;9.80;99.90
29547;DHT22;40782;47.264;11.330;2023-04-06T09:53:20;10.00;99.90
29547;DHT22;40782;47.264;11.330;2023-04-06T09:55:48;10.30;99.90
29547;DHT22;40782;47.264;11.330;2023-04-06T09:58:17;10.60;99.90
29547;DHT22;40782;47.264;11.330;2023-04-06T10:00:48;10.80;99.90
29547;DHT22;40782;47.264;11.330;2023-04-06T10:03:20;11.10;99.90
29547;DHT22;40782;47.264;11.330;2023-04-06T10:05:50;11.60;99.90
29547;DHT22;40782;47.264;11.330;2023-04-06T10:08:19;11.70;99.90
29547;DHT22;40782;47.264;11.330;2023-04-06T10:10:47;11.20;99.90
29547;DHT22;40782;47.264;11.330;2023-04-06T10:13:14;11.50;99.90
29547;DHT22;40782;47.264;11.330;2023-04-06T10:15:42;11.60;99.90
29547;DHT22;40782;47.264;11.330;2023-04-06T10:18:10;11.40;99.90
29547;DHT22;40782;47.264;11.330;2023-04-06T10:20:39;11.80;99.90
29547;DHT22;40782;47.264;11.330;2023-04-06T10:23:08;11.90;99.90
29547;DHT22;40782;47.264;11.330;2023-04-06T10:25:39;12.10;99.90
29547;DHT22;40782;47.264;11.330;2023-04-06T10:28:07;12.30;99.90
29547;DHT22;40782;47.264;11.330;2023-04-06T10:30:34;12.50;99.90
29547;DHT22;40782;47.264;11.330;2023-04-06T10:33:13;12.90;99.90
29547;DHT22;40782;47.264;11.330;2023-04-06T10:35:40;13.00;99.90
29547;DHT22;40782;47.264;11.330;2023-04-06T10:38:08;13.30;99.90
29547;DHT22;40782;47.264;11.330;2023-04-06T10:40:35;13.40;99.90
29547;DHT22;40782;47.264;11.330;2023-04-06T10:43:09;13.40;99.90
29547;DHT22;40782;47.264;11.330;2023-04-06T10:45:36;13.60;99.90
29547;DHT22;40782;47.264;11.330;2023-04-06T10:48:13;13.80;99.90
29547;DHT22;40782;47.264;11.330;2023-04-06T10:50:43;14.20;99.90
29547;DHT22;40782;47.264;11.330;2023-04-06T10:53:11;14.40;99.90
29547;DHT22;40782;47.264;11.330;2023-04-06T10:55:38;14.90;99.90
29547;DHT22;40782;47.264;11.330;2023-04-06T10:58:06;15.10;99.90
29547;DHT22;40782;47.264;11.330;2023-04-06T11:00:33;15.10;99.90
29547;DHT22;40782;47.264;11.330;2023-04-06T11:03:00;15.00;99.10
29547;DHT22;40782;47.264;11.330;2023-04-06T11:05:28;15.80;98.20
29547;DHT22;40782;47.264;11.330;2023-04-06T11:07:57;16.10;98.50
29547;DHT22;40782;47.264;11.330;2023-04-06T11:10:24;16.40;99.90
29547;DHT22;40782;47.264;11.330;2023-04-06T11:12:52;16.60;93.80
29547;DHT22;40782;47.264;11.330;2023-04-06T11:15:20;16.70;93.90
29547;DHT22;40782;47.264;11.330;2023-04-06T11:17:47;16.80;94.80
29547;DHT22;40782;47.264;11.330;2023-04-06T11:20:14;17.00;92.30
29547;DHT22;40782;47.264;11.330;2023-04-06T11:22:50;17.00;90.30
29547;DHT22;40782;47.264;11.330;2023-04-06T11:25:18;16.70;84.80
29547;DHT22;40782;47.264;11.330;2023-04-06T11:27:45;16.90;84.40
29547;DHT22;40782;47.264;11.330;2023-04-06T11:30:13;17.20;77.80
29547;DHT22;40782;47.264;11.330;2023-04-06T11:32:40;16.90;76.30
29547;DHT22;40782;47.264;11.330;2023-04-06T11:35:10;16.90;73.40
29547;DHT22;40782;47.264;11.330;2023-04-06T11:37:37;16.50;69.80
29547;DHT22;40782;47.264;11.330;2023-04-06T11:40:09;15.90;68.80
29547;DHT22;40782;47.264;11.330;2023-04-06T11:42:36;16.00;70.20
29547;DHT22;40782;47.264;11.330;2023-04-06T11:45:04;16.60;74.10
29547;DHT22;40782;47.264;11.330;2023-04-06T11:47:34;16.90;77.90
29547;DHT22;40782;47.264;11.330;2023-04-06T11:50:05;17.40;77.20
29547;DHT22;40782;47.264;11.330;2023-04-06T11:52:33;17.80;78.20
29547;DHT22;40782;47.264;11.330;2023-04-06T11:55:09;17.90;77.40
29547;DHT22;40782;47.264;11.330;2023-04-06T11:57:38;18.20;74.40
29547;DHT22;40782;47.264;11.330;2023-04-06T12:00:06;18.50;65.00
29547;DHT22;40782;47.264;11.330;2023-04-06T12:02:33;18.80;68.80
29547;DHT22;40782;47.264;11.330;2023-04-06T12:05:01;18.70;62.00
29547;DHT22;40782;47.264;11.330;2023-04-06T12:07:28;18.70;57.70
29547;DHT22;40782;47.264;11.330;2023-04-06T12:09:56;19.10;60.50
29547;DHT22;40782;47.264;11.330;2023-04-06T12:12:23;19.50;57.60
29547;DHT22;40782;47.264;11.330;2023-04-06T12:14:52;19.50;56.90
29547;DHT22;40782;47.264;11.330;2023-04-06T12:17:19;19.90;55.60
29547;DHT22;40782;47.264;11.330;2023-04-06T12:19:47;20.80;50.10
29547;DHT22;40782;47.264;11.330;2023-04-06T12:22:14;21.20;43.90
29547;DHT22;40782;47.264;11.330;2023-04-06T12:24:41;20.60;48.50
29547;DHT22;40782;47.264;11.330;2023-04-06T12:27:08;20.80;50.70
29547;DHT22;40782;47.264;11.330;2023-04-06T12:29:37;21.30;45.80
29547;DHT22;40782;47.264;11.330;2023-04-06T12:32:05;21.40;42.40
29547;DHT22;40782;47.264;11.330;2023-04-06T12:34:32;20.50;39.60
29547;DHT22;40782;47.264;11.330;2023-04-06T12:36:59;20.80;41.50
29547;DHT22;40782;47.264;11.330;2023-04-06T12:39:27;21.30;37.40
29547;DHT22;40782;47.264;11.330;2023-04-06T12:41:54;21.70;36.00
29547;DHT22;40782;47.264;11.330;2023-04-06T12:44:23;22.40;36.90
29547;DHT22;40782;47.264;11.330;2023-04-06T12:46:50;22.80;36.10
29547;DHT22;40782;47.264;11.330;2023-04-06T12:49:19;22.80;32.20
29547;DHT22;40782;47.264;11.330;2023-04-06T12:51:47;22.70;27.90
29547;DHT22;40782;47.264;11.330;2023-04-06T12:54:14;22.80;25.30
29547;DHT22;40782;47.264;11.330;2023-04-06T12:56:41;20.70;35.70
29547;DHT22;40782;47.264;11.330;2023-04-06T12:59:08;20.80;22.90
29547;DHT22;40782;47.264;11.330;2023-04-06T13:01:36;21.40;43.50
29547;DHT22;40782;47.264;11.330;2023-04-06T13:04:03;22.00;25.60
29547;DHT22;40782;47.264;11.330;2023-04-06T13:06:32;22.50;25.90
29547;DHT22;40782;47.264;11.330;2023-04-06T13:08:59;22.90;26.60
29547;DHT22;40782;47.264;11.330;2023-04-06T13:11:26;23.40;22.20
29547;DHT22;40782;47.264;11.330;2023-04-06T13:13:53;23.10;22.70
29547;DHT22;40782;47.264;11.330;2023-04-06T13:16:21;22.90;24.80
29547;DHT22;40782;47.264;11.330;2023-04-06T13:18:48;23.30;22.50
29547;DHT22;40782;47.264;11.330;2023-04-06T13:21:15;23.90;21.40
29547;DHT22;40782;47.264;11.330;2023-04-06T13:23:44;23.70;20.10
29547;DHT22;40782;47.264;11.330;2023-04-06T13:26:11;24.40;17.00
29547;DHT22;40782;47.264;11.330;2023-04-06T13:28:40;25.00;14.40
29547;DHT22;40782;47.264;11.330;2023-04-06T13:31:07;24.30;12.00
29547;DHT22;40782;47.264;11.330;2023-04-06T13:33:35;23.90;16.60
29547;DHT22;40782;47.264;11.330;2023-04-06T13:36:02;23.40;11.70
29547;DHT22;40782;47.264;11.330;2023-04-06T13:38:29;22.70;13.40
29547;DHT22;40782;47.264;11.330;2023-04-06T13:40:58;22.00;14.00
29547;DHT22;40782;47.264;11.330;2023-04-06T13:43:25;21.40;14.40
29547;DHT22;40782;47.264;11.330;2023-04-06T13:45:53;21.20;15.80
29547;DHT22;40782;47.264;11.330;2023-04-06T13:48:21;20.40;17.10
29547;DHT22;40782;47.264;11.330;2023-04-06T13:50:48;20.00;19.20
29547;DHT22;40782;47.264;11.330;2023-04-06T13:53:15;20.60;22.30
29547;DHT22;40782;47.264;11.330;2023-04-06T13:55:42;21.70;18.80
29547;DHT22;40782;47.264;11.330;2023-04-06T13:58:11;22.10;20.40
29547;DHT22;40782;47.264;11.330;2023-04-06T14:00:38;22.80;16.50
29547;DHT22;40782;47.264;11.330;2023-04-06T14:03:05;22.90;16.00
29547;DHT22;40782;47.264;11.330;2023-04-06T14:05:33;22.90;14.90
29547;DHT22;40782;47.264;11.330;2023-04-06T14:08:00;22.10;13.40
29547;DHT22;40782;47.264;11.330;2023-04-06T14:10:27;21.60;15.40
29547;DHT22;40782;47.264;11.330;2023-04-06T14:12:54;21.90;13.80
29547;DHT22;40782;47.264;11.330;2023-04-06T14:15:25;21.60;12.20
29547;DHT22;40782;47.264;11.330;2023-04-06T14:17:53;21.00;13.30
29547;DHT22;40782;47.264;11.330;2023-04-06T14:20:21;21.10;14.30
29547;DHT22;40782;47.264;11.330;2023-04-06T14:22:48;21.30;13.10
29547;DHT22;40782;47.264;11.330;2023-04-06T14:25:16;21.20;13.40
29547;DHT22;40782;47.264;11.330;2023-04-06T14:27:43;21.10;13.10
29547;DHT22;40782;47.264;11.330;2023-04-06T14:30:11;20.80;12.80
29547;DHT22;40782;47.264;11.330;2023-04-06T14:32:40;20.30;14.10
29547;DHT22;40782;47.264;11.330;2023-04-06T14:35:07;20.80;14.30
29547;DHT22;40782;47.264;11.330;2023-04-06T14:37:34;20.60;15.90
29547;DHT22;40782;47.264;11.330;2023-04-06T14:40:01;20.30;15.90
29547;DHT22;40782;47.264;11.330;2023-04-06T14:42:29;21.00;19.70
29547;DHT22;40782;47.264;11.330;2023-04-06T14:44:56;21.70;18.50
29547;DHT22;40782;47.264;11.330;2023-04-06T14:47:23;21.80;17.60
29547;DHT22;40782;47.264;11.330;2023-04-06T14:49:51;22.40;13.20
29547;DHT22;40782;47.264;11.330;2023-04-06T14:52:19;22.60;11.60
29547;DHT22;40782;47.264;11.330;2023-04-06T14:54:46;22.70;11.70
29547;DHT22;40782;47.264;11.330;2023-04-06T14:57:13;22.40;23.30
29547;DHT22;40782;47.264;11.330;2023-04-06T14:59:40;21.80;10.50
29547;DHT22;40782;47.264;11.330;2023-04-06T15:02:07;21.70;10.70
29547;DHT22;40782;47.264;11.330;2023-04-06T15:04:34;21.10;9.90
29547;DHT22;40782;47.264;11.330;2023-04-06T15:07:03;20.20;9.90
29547;DHT22;40782;47.264;11.330;2023-04-06T15:09:30;19.80;12.20
29547;DHT22;40782;47.264;11.330;2023-04-06T15:11:57;19.70;13.10
29547;DHT22;40782;47.264;11.330;2023-04-06T15:14:24;19.20;11.80
29547;DHT22;40782;47.264;11.330;2023-04-06T15:16:51;18.70;12.80
29547;DHT22;40782;47.264;11.330;2023-04-06T15:19:18;18.50;14.40
29547;DHT22;40782;47.264;11.330;2023-04-06T15:21:45;18.40;13.80
29547;DHT22;40782;47.264;11.330;2023-04-06T15:24:14;18.80;15.80
29547;DHT22;40782;47.264;11.330;2023-04-06T15:26:41;19.60;15.40